Athol, MA (01331)

11:39 PM EDT on August 28, 2016 (GMT -0400)
Harvard Ave, Athol | | Change Station

Elev 539 ft 42.58 °N, 72.24 °W | Updated 8 seconds ago

Partly Cloudy
Partly Cloudy
70.7 °F
Feels Like 73 °F
N
4.2
Wind Variable Wind from SW
Gusts 4.9 mph

Today
High -- | Low -- °F
--% Chance of Precip.
Yesterday
High -- | Low -- °F
Precip. -- in
Pressure 30.15 in
Visibility 10.0 miles
Clouds Few 5500 ft
Heat Index 73 °F
Dew Point 62 °F
Humidity 75%
Rainfall 0.00 in
Snow Depth Not available.
6:10 AM 7:29 PM
Waning Crescent, 11% visible
METAR KORE 290252Z AUTO 19011KT 10SM FEW055 23/16 A3016 RMK AO2 SLP210 T02280161 53006
Pressure 30.15 in
Visibility 10.0 miles
Clouds Few 5500 ft
Heat Index 73 °F
Dew Point 62 °F
Humidity 75%
Rainfall 0.00 in
Snow Depth Not available.
6:10 AM 7:29 PM
Waning Crescent, 11% visible
METAR KORE 290252Z AUTO 19011KT 10SM FEW055 23/16 A3016 RMK AO2 SLP210 T02280161 53006

10-Day Weather Forecast

Almanac

Astronomy

Aug. 28, 2016 Rise Set
Actual Time
Civil Twilight
Nautical Twilight
Astronomical Twilight
Moon
Length of Visible Light
Length of Day
Tomorrow will be .
, % of the Moon is Illuminated

Today's Extremes

State Highs State Lows

Community

WunderPhotos

Upload Photos

1,935,782 photos uploaded!

WunderBlog® & News

Nearby

Air Quality

  Air Quality AQ Index Pollutant
Not available.

Snow Depth

Station Depth Elevation

Earthquake Activity

City Distance Mag. Time & Date
Minimum magnitude displayed is 2.5.

Coastal Water Temperatures

Place Temperature

Stations

Nearby Weather Stations

Station Location Temp. Windchill Dew Point Humidity Wind Precip. Elev Updated Type
                   

Watches & Warnings

There are currently no watches in effect.